Time;durP1;ratioP1;P1;durP2;ratioP2;P2;SDS_P1;SDS_P2;PMS_P1;PMS_P2;Temp;Humidity;BMP_temperature;BMP_pressure;BME280_temperature;BME280_humidity;BME280_pressure;Samples;Min_cycle;Max_cycle;Signal;HPM_P1;HPM_P2
2023/03/07 00:02:17;;;;;;;;;;;;;;;;;;5043124;28;19919;-82
2023/03/07 00:04:45;;;;;;;;;;;;;;;;;;5050403;23;20200;-80
2023/03/07 00:07:10;;;;;;;;;;;;;;;;;;5040739;28;20058;-81
2023/03/07 00:09:35;;;;;;;;;;;;;;;;;;5042514;28;20019;-81
2023/03/07 00:12:00;;;;;;;;;;;;;;;;;;5041194;28;20610;-81
2023/03/07 00:14:26;;;;;;;;;;;;;;;;;;5045923;28;19978;-81
2023/03/07 00:16:51;;;;;;;;;;;;;;;;;;5042729;28;19914;-81
2023/03/07 00:19:17;;;;;;;;;;;;;;;;;;5047164;28;19912;-82
2023/03/07 00:21:42;;;;;;;;;;;;;;;;;;5036525;28;19920;-81
2023/03/07 00:24:07;;;;;;;;;;;;;;;;;;5040599;28;19920;-83
2023/03/07 00:26:38;;;;;;;;;;;;;;;;;;5042738;28;20342;-82
2023/03/07 00:29:03;;;;;;;;;;;;;;;;;;5043812;28;19921;-80
2023/03/07 00:31:28;;;;;;;;;;;;;;;;;;5043168;28;20013;-81
2023/03/07 00:33:53;;;;;;;;;;;;;;;;;;5041207;28;19925;-81
2023/03/07 00:36:19;;;;;;;;;;;;;;;;;;5042068;28;20482;-81
2023/03/07 00:38:44;;;;;;;;;;;;;;;;;;5041315;28;20053;-81
2023/03/07 00:41:09;;;;;;;;;;;;;;;;;;5042513;28;20233;-81
2023/03/07 00:43:34;;;;;;;;;;;;;;;;;;5041381;28;19916;-81
2023/03/07 00:46:00;;;;;;;;;;;;;;;;;;5040963;28;19920;-81
2023/03/07 00:48:25;;;;;;;;;;;;;;;;;;5043788;28;20066;-81
2023/03/07 00:50:50;;;;;;;;;;;;;;;;;;5025106;28;19913;-82
2023/03/07 00:53:15;;;;;;;;;;;;;;;;;;5047288;28;20247;-82
2023/03/07 00:55:40;;;;;;;;;;;;;;;;;;5045951;28;19948;-82
2023/03/07 00:58:05;;;;;;;;;;;;;;;;;;5045526;28;19990;-81
2023/03/07 01:00:31;;;;;;;;;;;;;;;;;;5048673;28;19909;-81
2023/03/07 01:03:01;;;;;;;;;;;;;;;;;;5046875;28;19923;-82
2023/03/07 01:05:26;;;;;;;;;;;;;;;;;;5049174;28;20019;-81
2023/03/07 01:07:51;;;;;;;;;;;;;;;;;;5022300;28;20442;-83
2023/03/07 01:10:16;;;;;;;;;;;;;;;;;;5027196;28;20376;-81
2023/03/07 01:12:42;;;;;;;;;;;;;;;;;;5048226;28;19921;-83
2023/03/07 01:15:07;;;;;;;;;;;;;;;;;;5045810;28;20510;-82
2023/03/07 01:17:33;;;;;;;;;;;;;;;;;;5040953;28;20405;-82
2023/03/07 01:19:58;;;;;;;;;;;;;;;;;;5044916;28;19958;-82
2023/03/07 01:22:23;;;;;;;;;;;;;;;;;;5048403;28;19960;-83
2023/03/07 01:24:48;;;;;;;;;;;;;;;;;;5046739;28;19971;-82
2023/03/07 01:27:13;;;;;;;;;;;;;;;;;;5046692;28;19920;-82
2023/03/07 01:29:39;;;;;;;;;;;;;;;;;;5043778;28;20023;-83
2023/03/07 01:32:04;;;;;;;;;;;;;;;;;;5049554;28;19920;-84
2023/03/07 01:34:29;;;;;;;;;;;;;;;;;;5029664;28;19917;-85
2023/03/07 01:36:54;;;;;;;;;;;;;;;;;;5045522;28;20366;-84
2023/03/07 01:39:19;;;;;;;;;;;;;;;;;;5045693;28;19920;-87
2023/03/07 01:41:45;;;;;;;;;;;;;;;;;;5042134;28;19942;-85
2023/03/07 01:44:10;;;;;;;;;;;;;;;;;;5029352;28;20452;-85
2023/03/07 01:46:35;;;;;;;;;;;;;;;;;;5047066;28;19917;-86
2023/03/07 01:49:02;;;;;;;;;;;;;;;;;;5044799;28;19921;-85
2023/03/07 01:51:27;;;;;;;;;;;;;;;;;;5045964;28;19920;-85
2023/03/07 01:53:52;;;;;;;;;;;;;;;;;;5046607;28;20294;-87
2023/03/07 01:56:18;;;;;;;;;;;;;;;;;;5051110;28;19980;-85
2023/03/07 01:58:43;;;;;;;;;;;;;;;;;;5051904;28;20462;-85
2023/03/07 02:01:08;;;;;;;;;;;;;;;;;;5047005;28;20206;-87
2023/03/07 02:03:33;;;;;;;;;;;;;;;;;;5048215;28;19917;-85
2023/03/07 02:05:58;;;;;;;;;;;;;;;;;;5049858;28;20066;-88
2023/03/07 02:08:24;;;;;;;;;;;;;;;;;;5048192;28;19913;-85
2023/03/07 02:10:49;;;;;;;;;;;;;;;;;;5046714;28;19920;-86
2023/03/07 02:13:14;;;;;;;;;;;;;;;;;;5042692;28;20066;-88
2023/03/07 02:15:39;;;;;;;;;;;;;;;;;;5027955;28;19924;-85
2023/03/07 02:18:04;;;;;;;;;;;;;;;;;;5051903;28;19913;-86
2023/03/07 02:20:29;;;;;;;;;;;;;;;;;;5030635;28;19917;-88
2023/03/07 02:22:55;;;;;;;;;;;;;;;;;;5048075;28;19916;-87
2023/03/07 02:25:20;;;;;;;;;;;;;;;;;;5044769;28;19913;-85
2023/03/07 02:27:45;;;;;;;;;;;;;;;;;;5051708;28;19984;-86
2023/03/07 02:30:10;;;;;;;;;;;;;;;;;;5029265;28;19920;-85
2023/03/07 02:32:35;;;;;;;;;;;;;;;;;;5053409;28;19967;-86
2023/03/07 02:35:00;;;;;;;;;;;;;;;;;;5030815;28;20619;-86
2023/03/07 02:37:26;;;;;;;;;;;;;;;;;;5048033;28;20015;-86
2023/03/07 02:39:51;;;;;;;;;;;;;;;;;;5051352;28;20276;-86
2023/03/07 02:42:16;;;;;;;;;;;;;;;;;;5049579;28;19912;-86
2023/03/07 02:44:41;;;;;;;;;;;;;;;;;;5052302;28;20309;-88
2023/03/07 02:47:08;;;;;;;;;;;;;;;;;;5042487;28;19917;-85
2023/03/07 02:49:34;;;;;;;;;;;;;;;;;;5029862;28;19921;-86
2023/03/07 02:51:59;;;;;;;;;;;;;;;;;;5048032;28;19909;-88
2023/03/07 02:54:24;;;;;;;;;;;;;;;;;;5032794;28;19917;-85
2023/03/07 02:56:49;;;;;;;;;;;;;;;;;;5049772;28;19952;-88
2023/03/07 02:59:15;;;;;;;;;;;;;;;;;;5047239;28;20363;-86
2023/03/07 03:01:40;;;;;;;;;;;;;;;;;;5047963;28;19919;-87
2023/03/07 03:04:05;;;;;;;;;;;;;;;;;;5032115;28;19925;-86
2023/03/07 03:06:30;;;;;;;;;;;;;;;;;;5051554;28;20448;-87
2023/03/07 03:08:55;;;;;;;;;;;;;;;;;;5046871;28;19913;-86
2023/03/07 03:11:20;;;;;;;;;;;;;;;;;;5047714;28;19920;-85
2023/03/07 03:13:46;;;;;;;;;;;;;;;;;;5048225;28;20403;-86
2023/03/07 03:16:11;;;;;;;;;;;;;;;;;;5048192;28;19920;-86
2023/03/07 03:18:37;;;;;;;;;;;;;;;;;;5047388;28;19921;-86
2023/03/07 03:21:02;;;;;;;;;;;;;;;;;;5028634;28;20340;-89
2023/03/07 03:23:28;;;;;;;;;;;;;;;;;;5043676;28;19948;-86
2023/03/07 03:25:53;;;;;;;;;;;;;;;;;;5044835;28;19920;-87
2023/03/07 03:28:18;;;;;;;;;;;;;;;;;;5049507;28;20387;-88
2023/03/07 03:30:43;;;;;;;;;;;;;;;;;;5045636;28;19913;-86
2023/03/07 03:33:08;;;;;;;;;;;;;;;;;;5048509;28;19928;-87
2023/03/07 03:35:33;;;;;;;;;;;;;;;;;;5054357;28;19924;-86
2023/03/07 03:37:59;;;;;;;;;;;;;;;;;;5049488;28;20378;-89
2023/03/07 03:40:24;;;;;;;;;;;;;;;;;;5049092;28;19955;-85
2023/03/07 03:42:49;;;;;;;;;;;;;;;;;;5041640;28;20145;-87
2023/03/07 03:45:15;;;;;;;;;;;;;;;;;;5045778;28;19913;-86
2023/03/07 03:47:40;;;;;;;;;;;;;;;;;;5048605;28;20447;-86
2023/03/07 03:50:05;;;;;;;;;;;;;;;;;;5050188;28;19936;-86
2023/03/07 03:52:30;;;;;;;;;;;;;;;;;;5046797;28;20068;-85
2023/03/07 03:54:55;;;;;;;;;;;;;;;;;;5043374;28;20415;-87
2023/03/07 03:57:21;;;;;;;;;;;;;;;;;;5048936;28;19917;-86
2023/03/07 03:59:46;;;;;;;;;;;;;;;;;;5044698;28;19917;-86
2023/03/07 04:02:11;;;;;;;;;;;;;;;;;;5051386;28;19912;-86
2023/03/07 04:04:36;;;;;;;;;;;;;;;;;;5048211;28;19928;-86
2023/03/07 04:07:03;;;;;;;;;;;;;;;;;;5047992;28;19921;-87
2023/03/07 04:09:28;;;;;;;;;;;;;;;;;;5043736;28;20007;-86
2023/03/07 04:11:54;;;;;;;;;;;;;;;;;;5043879;28;19995;-86
2023/03/07 04:14:19;;;;;;;;;;;;;;;;;;5048254;28;19920;-86
2023/03/07 04:16:44;;;;;;;;;;;;;;;;;;5045520;28;19917;-89
2023/03/07 04:19:11;;;;;;;;;;;;;;;;;;5049993;28;19927;-85
2023/03/07 04:21:36;;;;;;;;;;;;;;;;;;5046320;28;19921;-87
2023/03/07 04:24:02;;;;;;;;;;;;;;;;;;5046944;28;20424;-85
2023/03/07 04:26:27;;;;;;;;;;;;;;;;;;5049580;28;19917;-86
2023/03/07 04:28:52;;;;;;;;;;;;;;;;;;5046851;28;19913;-88
2023/03/07 04:31:18;;;;;;;;;;;;;;;;;;5048944;28;20759;-85
2023/03/07 04:33:43;;;;;;;;;;;;;;;;;;5050711;28;19925;-85
2023/03/07 04:36:08;;;;;;;;;;;;;;;;;;5034230;28;20332;-87
2023/03/07 04:38:33;;;;;;;;;;;;;;;;;;5053668;28;19921;-86
2023/03/07 04:40:58;;;;;;;;;;;;;;;;;;5050476;28;19913;-86
2023/03/07 04:43:23;;;;;;;;;;;;;;;;;;5049715;28;19925;-86
2023/03/07 04:45:49;;;;;;;;;;;;;;;;;;5047324;28;20737;-87
2023/03/07 04:48:14;;;;;;;;;;;;;;;;;;5052073;28;19952;-88
2023/03/07 04:50:39;;;;;;;;;;;;;;;;;;5053654;28;19916;-87
2023/03/07 04:53:04;;;;;;;;;;;;;;;;;;5045275;28;20136;-88
2023/03/07 04:55:29;;;;;;;;;;;;;;;;;;5049918;28;19944;-86
2023/03/07 04:57:56;;;;;;;;;;;;;;;;;;5045581;28;19916;-89
2023/03/07 05:00:21;;;;;;;;;;;;;;;;;;5050047;28;20545;-86
2023/03/07 05:02:47;;;;;;;;;;;;;;;;;;5050453;28;20013;-86
2023/03/07 05:05:12;;;;;;;;;;;;;;;;;;5050662;28;20317;-88
2023/03/07 05:07:38;;;;;;;;;;;;;;;;;;5047304;28;20412;-89
2023/03/07 05:10:03;;;;;;;;;;;;;;;;;;5045774;28;20031;-87
2023/03/07 05:12:28;;;;;;;;;;;;;;;;;;5029533;28;19917;-87
2023/03/07 05:14:54;;;;;;;;;;;;;;;;;;5044518;28;19947;-87
2023/03/07 05:17:19;;;;;;;;;;;;;;;;;;5046537;28;20409;-86
2023/03/07 05:19:44;;;;;;;;;;;;;;;;;;5046818;28;20382;-87
2023/03/07 05:22:09;;;;;;;;;;;;;;;;;;5049141;28;19967;-88
2023/03/07 05:24:34;;;;;;;;;;;;;;;;;;5031929;28;19943;-89
2023/03/07 05:27:00;;;;;;;;;;;;;;;;;;5046648;28;19917;-86
2023/03/07 05:29:25;;;;;;;;;;;;;;;;;;5052614;28;19958;-86
2023/03/07 05:31:50;;;;;;;;;;;;;;;;;;5052018;28;20306;-88
2023/03/07 05:34:15;;;;;;;;;;;;;;;;;;5048712;28;19924;-87
2023/03/07 05:36:40;;;;;;;;;;;;;;;;;;5046839;28;19913;-87
2023/03/07 05:39:06;;;;;;;;;;;;;;;;;;5048073;28;21323;-86
2023/03/07 05:41:31;;;;;;;;;;;;;;;;;;5030132;28;19913;-86
2023/03/07 05:43:57;;;;;;;;;;;;;;;;;;5049562;28;19967;-86
2023/03/07 05:46:22;;;;;;;;;;;;;;;;;;5046215;28;20393;-86
2023/03/07 05:48:47;;;;;;;;;;;;;;;;;;5050060;28;20156;-86
2023/03/07 05:51:13;;;;;;;;;;;;;;;;;;5051666;28;19918;-87
2023/03/07 05:53:38;;;;;;;;;;;;;;;;;;5051927;28;19925;-87
2023/03/07 05:56:03;;;;;;;;;;;;;;;;;;5052196;28;20298;-85
2023/03/07 05:58:28;;;;;;;;;;;;;;;;;;5050015;28;19913;-86
2023/03/07 06:00:54;;;;;;;;;;;;;;;;;;5047590;28;19930;-86
2023/03/07 06:03:19;;;;;;;;;;;;;;;;;;5047200;28;19921;-85
2023/03/07 06:05:44;;;;;;;;;;;;;;;;;;5029391;22;19926;-84
2023/03/07 06:08:11;;;;;;;;;;;;;;;;;;5008195;28;19917;-84
2023/03/07 06:13:20;;;;;;;;;;;;;;;;;;5006875;28;19980;-84
2023/03/07 06:15:47;;;;;;;;;;;;;;;;;;5000716;28;19929;-84
2023/03/07 06:18:20;;;;;;;;;;;;;;;;;;4976369;28;19922;-84
2023/03/07 06:20:45;;;;;;;;;;;;;;;;;;4967528;28;20418;-84
2023/03/07 06:23:10;;;;;;;;;;;;;;;;;;4972830;28;19914;-84
2023/03/07 06:25:35;;;;;;;;;;;;;;;;;;4968038;28;20410;-84
2023/03/07 06:28:00;;;;;;;;;;;;;;;;;;4965472;28;19990;-84
2023/03/07 06:30:26;;;;;;;;;;;;;;;;;;4976728;28;20394;-84
2023/03/07 06:32:51;;;;;;;;;;;;;;;;;;4974365;28;19910;-84
2023/03/07 06:35:16;;;;;;;;;;;;;;;;;;4975307;28;20204;-84
2023/03/07 06:37:41;;;;;;;;;;;;;;;;;;4963797;28;19925;-84
2023/03/07 06:40:08;;;;;;;;;;;;;;;;;;4968700;28;20393;-86
2023/03/07 06:42:33;;;;;;;;;;;;;;;;;;4970654;28;20331;-86
2023/03/07 06:44:58;;;;;;;;;;;;;;;;;;4969739;28;19921;-85
2023/03/07 06:47:23;;;;;;;;;;;;;;;;;;4970898;28;20291;-85
2023/03/07 06:49:49;;;;;;;;;;;;;;;;;;4968962;28;20267;-85
2023/03/07 06:52:14;;;;;;;;;;;;;;;;;;4967607;28;19949;-86
2023/03/07 06:54:39;;;;;;;;;;;;;;;;;;4968765;28;19926;-86
2023/03/07 06:57:04;;;;;;;;;;;;;;;;;;4969056;28;19918;-86
2023/03/07 06:59:30;;;;;;;;;;;;;;;;;;4964944;28;19922;-86
2023/03/07 07:01:55;;;;;;;;;;;;;;;;;;4967240;28;19929;-86
2023/03/07 07:04:20;;;;;;;;;;;;;;;;;;4965228;28;19954;-85
2023/03/07 07:06:45;;;;;;;;;;;;;;;;;;4971446;28;19914;-86
2023/03/07 07:09:10;;;;;;;;;;;;;;;;;;4969107;28;20519;-87
2023/03/07 07:11:35;;;;;;;;;;;;;;;;;;4968859;28;19914;-86
2023/03/07 07:14:01;;;;;;;;;;;;;;;;;;4964284;28;19926;-86
2023/03/07 07:16:26;;;;;;;;;;;;;;;;;;4959800;28;20262;-85
2023/03/07 07:18:51;;;;;;;;;;;;;;;;;;4968346;28;20322;-86
2023/03/07 07:21:16;;;;;;;;;;;;;;;;;;4969069;28;19923;-86
2023/03/07 07:23:42;;;;;;;;;;;;;;;;;;4963110;28;20495;-85
2023/03/07 07:26:07;;;;;;;;;;;;;;;;;;4963742;28;19921;-85
2023/03/07 07:28:32;;;;;;;;;;;;;;;;;;4970174;28;19914;-85
2023/03/07 07:30:57;;;;;;;;;;;;;;;;;;4966322;28;19973;-86
2023/03/07 07:33:22;;;;;;;;;;;;;;;;;;4967922;28;19925;-85
2023/03/07 07:35:48;;;;;;;;;;;;;;;;;;4965926;28;19918;-85
2023/03/07 07:38:13;;;;;;;;;;;;;;;;;;4968223;28;19922;-85
2023/03/07 07:40:38;;;;;;;;;;;;;;;;;;4968976;28;20221;-85
2023/03/07 07:43:03;;;;;;;;;;;;;;;;;;4964475;28;19924;-84
2023/03/07 07:45:28;;;;;;;;;;;;;;;;;;4964997;28;19914;-85
2023/03/07 07:47:54;;;;;;;;;;;;;;;;;;4968472;28;20510;-86
2023/03/07 07:50:19;;;;;;;;;;;;;;;;;;4967271;28;19922;-86
2023/03/07 07:52:44;;;;;;;;;;;;;;;;;;4972489;28;20000;-86
2023/03/07 07:55:09;;;;;;;;;;;;;;;;;;4966279;28;20287;-85
2023/03/07 07:57:34;;;;;;;;;;;;;;;;;;4971402;28;20359;-86
2023/03/07 08:00:00;;;;;;;;;;;;;;;;;;4966451;28;19928;-85
2023/03/07 08:02:25;;;;;;;;;;;;;;;;;;4969546;28;20034;-85
2023/03/07 08:04:50;;;;;;;;;;;;;;;;;;4967833;28;20016;-85
2023/03/07 08:07:16;;;;;;;;;;;;;;;;;;4972195;28;20339;-85
2023/03/07 08:09:41;;;;;;;;;;;;;;;;;;4969665;28;19922;-85
2023/03/07 08:12:06;;;;;;;;;;;;;;;;;;4967485;28;19989;-84
2023/03/07 08:14:33;;;;;;;;;;;;;;;;;;4965097;28;19919;-84
2023/03/07 08:16:59;;;;;;;;;;;;;;;;;;4967096;28;19945;-84
2023/03/07 08:19:26;;;;;;;;;;;;;;;;;;4960486;28;19962;-84
2023/03/07 08:21:52;;;;;;;;;;;;;;;;;;4965040;28;19958;-85
2023/03/07 08:24:17;;;;;;;;;;;;;;;;;;4965579;28;20305;-84
2023/03/07 08:26:42;;;;;;;;;;;;;;;;;;4966949;28;19918;-84
2023/03/07 08:29:07;;;;;;;;;;;;;;;;;;4967743;28;20016;-85
2023/03/07 08:31:32;;;;;;;;;;;;;;;;;;4962352;28;20292;-84
2023/03/07 08:33:57;;;;;;;;;;;;;;;;;;4966074;28;20005;-86
2023/03/07 08:36:23;;;;;;;;;;;;;;;;;;4965493;28;19914;-85
2023/03/07 08:38:50;;;;;;;;;;;;;;;;;;4967539;28;19925;-85
2023/03/07 08:41:15;;;;;;;;;;;;;;;;;;4968816;28;19914;-85
2023/03/07 08:43:40;;;;;;;;;;;;;;;;;;4967075;28;19925;-85
2023/03/07 08:46:06;;;;;;;;;;;;;;;;;;4968874;28;19945;-85
2023/03/07 08:48:31;;;;;;;;;;;;;;;;;;4971745;28;20303;-85
2023/03/07 08:50:56;;;;;;;;;;;;;;;;;;4968066;28;20009;-85
2023/03/07 08:53:27;;;;;;;;;;;;;;;;;;4968812;28;19926;-84
2023/03/07 08:55:55;;;;;;;;;;;;;;;;;;4966784;28;20295;-85
2023/03/07 08:58:20;;;;;;;;;;;;;;;;;;4965227;28;20225;-84
2023/03/07 09:00:45;;;;;;;;;;;;;;;;;;4964014;28;20703;-86
2023/03/07 09:03:10;;;;;;;;;;;;;;;;;;4957403;28;19968;-85
2023/03/07 09:05:35;;;;;;;;;;;;;;;;;;4961713;28;19926;-86
2023/03/07 09:08:04;;;;;;;;;;;;;;;;;;4965107;28;19919;-86
2023/03/07 09:10:29;;;;;;;;;;;;;;;;;;4965443;28;19922;-86
2023/03/07 09:12:54;;;;;;;;;;;;;;;;;;4977569;28;20395;-86
2023/03/07 09:15:19;;;;;;;;;;;;;;;;;;4970559;28;20478;-85
2023/03/07 09:17:45;;;;;;;;;;;;;;;;;;4964938;28;19992;-85
2023/03/07 09:20:15;;;;;;;;;;;;;;;;;;4970199;28;20367;-86
2023/03/07 09:22:40;;;;;;;;;;;;;;;;;;4968580;28;19941;-85
2023/03/07 09:25:05;;;;;;;;;;;;;;;;;;4986634;28;20680;-84
2023/03/07 09:27:30;;;;;;;;;;;;;;;;;;4983367;28;19918;-84
2023/03/07 09:29:55;;;;;;;;;;;;;;;;;;4979573;28;19918;-84
2023/03/07 09:32:21;;;;;;;;;;;;;;;;;;4972877;28;20110;-85
2023/03/07 09:34:46;;;;;;;;;;;;;;;;;;4974359;28;19960;-85
2023/03/07 09:37:11;;;;;;;;;;;;;;;;;;4979088;28;19989;-84
2023/03/07 09:39:36;;;;;;;;;;;;;;;;;;4985071;28;19913;-84
2023/03/07 09:42:01;;;;;;;;;;;;;;;;;;4985497;28;19965;-82
2023/03/07 09:44:27;;;;;;;;;;;;;;;;;;4984379;28;19918;-83
2023/03/07 09:46:52;;;;;;;;;;;;;;;;;;4987877;28;19926;-84
2023/03/07 09:49:17;;;;;;;;;;;;;;;;;;4981657;28;19922;-83
2023/03/07 09:51:42;;;;;;;;;;;;;;;;;;4985390;28;19933;-82
2023/03/07 09:54:07;;;;;;;;;;;;;;;;;;4984037;28;19926;-84
2023/03/07 09:56:32;;;;;;;;;;;;;;;;;;4985532;28;19914;-83
2023/03/07 09:58:58;;;;;;;;;;;;;;;;;;4976165;28;20387;-84
2023/03/07 10:01:23;;;;;;;;;;;;;;;;;;4981616;28;19937;-84
2023/03/07 10:03:51;;;;;;;;;;;;;;;;;;4989891;28;19929;-85
2023/03/07 10:06:16;;;;;;;;;;;;;;;;;;4983289;28;19905;-85
2023/03/07 10:08:41;;;;;;;;;;;;;;;;;;4984039;28;19924;-85
2023/03/07 10:11:06;;;;;;;;;;;;;;;;;;4979486;28;19922;-84
2023/03/07 10:13:31;;;;;;;;;;;;;;;;;;4986838;28;19917;-85
2023/03/07 10:15:57;;;;;;;;;;;;;;;;;;4979109;28;20195;-85
2023/03/07 10:18:22;;;;;;;;;;;;;;;;;;4984092;28;20312;-84
2023/03/07 10:20:47;;;;;;;;;;;;;;;;;;4989985;28;19921;-84
2023/03/07 10:23:12;;;;;;;;;;;;;;;;;;4994109;28;20039;-85
2023/03/07 10:25:37;;;;;;;;;;;;;;;;;;4985586;28;20031;-83
2023/03/07 10:28:03;;;;;;;;;;;;;;;;;;4987759;28;19930;-83
2023/03/07 10:30:29;;;;;;;;;;;;;;;;;;4985120;28;19960;-84
2023/03/07 10:32:57;;;;;;;;;;;;;;;;;;4983800;28;19921;-84
2023/03/07 10:35:23;;;;;;;;;;;;;;;;;;4981859;28;19918;-85
2023/03/07 10:37:51;;;;;;;;;;;;;;;;;;4991444;28;19913;-84
2023/03/07 10:40:16;;;;;;;;;;;;;;;;;;4990140;28;19921;-84
2023/03/07 10:42:41;;;;;;;;;;;;;;;;;;4986248;28;19922;-85
2023/03/07 10:45:07;;;;;;;;;;;;;;;;;;4985825;28;19938;-84
2023/03/07 10:47:32;;;;;;;;;;;;;;;;;;4988240;28;19962;-83
2023/03/07 10:49:57;;;;;;;;;;;;;;;;;;4983121;28;19983;-83
2023/03/07 10:52:22;;;;;;;;;;;;;;;;;;4990143;28;19946;-83
2023/03/07 10:54:47;;;;;;;;;;;;;;;;;;4980406;28;20407;-84
2023/03/07 10:57:13;;;;;;;;;;;;;;;;;;4989461;28;20580;-84
2023/03/07 10:59:38;;;;;;;;;;;;;;;;;;4993715;28;19918;-83
2023/03/07 11:02:04;;;;;;;;;;;;;;;;;;4982862;28;19914;-85
2023/03/07 11:04:31;;;;;;;;;;;;;;;;;;4984576;28;22693;-84
2023/03/07 11:06:59;;;;;;;;;;;;;;;;;;4987709;28;19909;-83
2023/03/07 11:09:24;;;;;;;;;;;;;;;;;;4986545;28;19956;-84
2023/03/07 11:11:50;;;;;;;;;;;;;;;;;;4990227;28;19922;-83
2023/03/07 11:14:15;;;;;;;;;;;;;;;;;;4986312;28;19921;-84
2023/03/07 11:16:40;;;;;;;;;;;;;;;;;;4988649;28;19918;-84
2023/03/07 11:19:05;;;;;;;;;;;;;;;;;;4984589;28;20014;-84
2023/03/07 11:21:30;;;;;;;;;;;;;;;;;;4988646;28;19937;-84
2023/03/07 11:23:56;;;;;;;;;;;;;;;;;;4991436;28;19925;-83
2023/03/07 11:26:21;;;;;;;;;;;;;;;;;;4989532;28;19925;-84
2023/03/07 11:28:46;;;;;;;;;;;;;;;;;;4987969;28;19922;-84
2023/03/07 11:31:11;;;;;;;;;;;;;;;;;;4987063;28;19922;-83
2023/03/07 11:33:37;;;;;;;;;;;;;;;;;;4990052;28;20126;-84
2023/03/07 11:36:02;;;;;;;;;;;;;;;;;;4989842;28;19930;-85
2023/03/07 11:38:27;;;;;;;;;;;;;;;;;;4986254;28;19946;-83
2023/03/07 11:40:52;;;;;;;;;;;;;;;;;;4995966;28;19918;-83
2023/03/07 11:43:18;;;;;;;;;;;;;;;;;;4988851;28;19914;-84
2023/03/07 11:45:43;;;;;;;;;;;;;;;;;;4987291;28;20127;-84
2023/03/07 11:48:10;;;;;;;;;;;;;;;;;;4987114;28;20005;-83
2023/03/07 11:50:35;;;;;;;;;;;;;;;;;;4988932;28;19961;-84
2023/03/07 11:53:00;;;;;;;;;;;;;;;;;;4993672;28;19922;-84
2023/03/07 11:55:25;;;;;;;;;;;;;;;;;;4980572;28;19966;-83
2023/03/07 11:57:51;;;;;;;;;;;;;;;;;;4985166;28;19918;-83
2023/03/07 12:00:16;;;;;;;;;;;;;;;;;;4984505;28;19918;-85
2023/03/07 12:02:41;;;;;;;;;;;;;;;;;;4989736;28;19906;-83
2023/03/07 12:05:07;;;;;;;;;;;;;;;;;;4972940;28;19918;-86
2023/03/07 12:07:32;;;;;;;;;;;;;;;;;;4967100;28;19984;-86
2023/03/07 12:09:57;;;;;;;;;;;;;;;;;;4966541;28;20009;-86
2023/03/07 12:12:22;;;;;;;;;;;;;;;;;;4965849;28;19918;-85
2023/03/07 12:14:50;;;;;;;;;;;;;;;;;;4964283;28;20312;-86
2023/03/07 12:17:15;;;;;;;;;;;;;;;;;;4961817;28;19924;-86
2023/03/07 12:19:42;;;;;;;;;;;;;;;;;;4957562;28;19918;-86
2023/03/07 12:22:08;;;;;;;;;;;;;;;;;;4962245;28;20379;-86
2023/03/07 12:24:33;;;;;;;;;;;;;;;;;;4966993;28;19917;-86
2023/03/07 12:26:58;;;;;;;;;;;;;;;;;;4957814;28;19918;-86
2023/03/07 12:29:23;;;;;;;;;;;;;;;;;;4958749;28;19914;-85
2023/03/07 12:31:48;;;;;;;;;;;;;;;;;;4964528;28;20325;-85
2023/03/07 12:34:14;;;;;;;;;;;;;;;;;;4963943;28;20400;-86
2023/03/07 12:36:41;;;;;;;;;;;;;;;;;;4959823;28;19922;-87
2023/03/07 12:39:06;;;;;;;;;;;;;;;;;;4974322;28;19954;-84
2023/03/07 12:41:32;;;;;;;;;;;;;;;;;;4952415;28;19965;-86
2023/03/07 12:43:57;;;;;;;;;;;;;;;;;;4982048;28;19903;-83
2023/03/07 12:46:22;;;;;;;;;;;;;;;;;;4989009;28;19913;-83
2023/03/07 12:48:47;;;;;;;;;;;;;;;;;;4990094;28;19931;-85
2023/03/07 12:51:13;;;;;;;;;;;;;;;;;;4985555;28;19906;-84
2023/03/07 12:53:38;;;;;;;;;;;;;;;;;;4987540;28;19921;-83
2023/03/07 12:56:03;;;;;;;;;;;;;;;;;;4977600;28;20135;-83
2023/03/07 12:58:28;;;;;;;;;;;;;;;;;;4990985;28;19925;-84
2023/03/07 13:00:53;;;;;;;;;;;;;;;;;;4993222;28;19926;-83
2023/03/07 13:03:18;;;;;;;;;;;;;;;;;;4994212;28;19918;-83
2023/03/07 13:05:44;;;;;;;;;;;;;;;;;;4994948;28;19922;-84
2023/03/07 13:08:09;;;;;;;;;;;;;;;;;;4986839;28;19929;-83
2023/03/07 13:10:34;;;;;;;;;;;;;;;;;;4995561;28;19926;-83
2023/03/07 13:13:00;;;;;;;;;;;;;;;;;;4989602;28;19953;-82
2023/03/07 13:15:26;;;;;;;;;;;;;;;;;;4991518;28;19941;-82
2023/03/07 13:17:52;;;;;;;;;;;;;;;;;;4985929;28;19918;-82
2023/03/07 13:20:17;;;;;;;;;;;;;;;;;;4989737;28;19946;-83
2023/03/07 13:22:45;;;;;;;;;;;;;;;;;;4986495;28;19957;-82
2023/03/07 13:25:10;;;;;;;;;;;;;;;;;;4990465;28;19922;-82
2023/03/07 13:27:35;;;;;;;;;;;;;;;;;;4981889;28;19918;-83
2023/03/07 13:30:00;;;;;;;;;;;;;;;;;;4983746;28;19918;-84
2023/03/07 13:32:26;;;;;;;;;;;;;;;;;;4991224;28;19915;-82
2023/03/07 13:34:51;;;;;;;;;;;;;;;;;;4990732;28;19975;-83
2023/03/07 13:37:25;;;;;;;;;;;;;;;;;;4989490;28;19994;-83
2023/03/07 13:39:50;;;;;;;;;;;;;;;;;;4982950;28;19914;-83
2023/03/07 13:42:15;;;;;;;;;;;;;;;;;;4984265;28;19929;-83
2023/03/07 13:44:41;;;;;;;;;;;;;;;;;;4994669;28;20113;-83
2023/03/07 13:47:09;;;;;;;;;;;;;;;;;;4988616;28;19922;-84
2023/03/07 13:49:34;;;;;;;;;;;;;;;;;;4971192;28;19942;-84
2023/03/07 13:51:59;;;;;;;;;;;;;;;;;;4980618;28;20205;-84
2023/03/07 13:54:27;;;;;;;;;;;;;;;;;;4990546;28;19929;-84
2023/03/07 13:56:52;;;;;;;;;;;;;;;;;;4986211;28;20005;-84
2023/03/07 13:59:19;;;;;;;;;;;;;;;;;;4993331;28;19918;-83
2023/03/07 14:01:44;;;;;;;;;;;;;;;;;;4993164;28;19929;-83
2023/03/07 14:04:09;;;;;;;;;;;;;;;;;;4992703;28;19977;-84
2023/03/07 14:06:34;;;;;;;;;;;;;;;;;;4989790;28;20251;-84
2023/03/07 14:09:00;;;;;;;;;;;;;;;;;;4980976;28;19910;-83
2023/03/07 14:11:25;;;;;;;;;;;;;;;;;;4988687;28;20152;-83
2023/03/07 14:13:51;;;;;;;;;;;;;;;;;;4979846;28;19926;-84
2023/03/07 14:16:17;;;;;;;;;;;;;;;;;;4988352;28;19910;-83
2023/03/07 14:18:42;;;;;;;;;;;;;;;;;;4990807;28;19936;-83
2023/03/07 14:21:08;;;;;;;;;;;;;;;;;;4990827;28;19954;-83
2023/03/07 14:23:33;;;;;;;;;;;;;;;;;;4981192;28;19917;-84
2023/03/07 14:26:01;;;;;;;;;;;;;;;;;;4994707;28;19953;-84
2023/03/07 14:28:27;;;;;;;;;;;;;;;;;;4984345;28;20010;-85
2023/03/07 14:30:52;;;;;;;;;;;;;;;;;;4988990;28;20196;-83
2023/03/07 14:33:17;;;;;;;;;;;;;;;;;;4990475;28;19925;-83
2023/03/07 14:35:43;;;;;;;;;;;;;;;;;;4991264;28;19918;-83
2023/03/07 14:38:08;;;;;;;;;;;;;;;;;;4985478;28;20085;-83
2023/03/07 14:40:33;;;;;;;;;;;;;;;;;;4986452;28;19918;-83
2023/03/07 14:42:58;;;;;;;;;;;;;;;;;;4985604;28;19955;-82
2023/03/07 14:45:24;;;;;;;;;;;;;;;;;;4992077;28;19918;-83
2023/03/07 14:47:49;;;;;;;;;;;;;;;;;;4985585;28;19914;-83
2023/03/07 14:50:17;;;;;;;;;;;;;;;;;;4980998;28;20403;-87
2023/03/07 14:52:42;;;;;;;;;;;;;;;;;;4980992;28;20166;-85
2023/03/07 14:55:08;;;;;;;;;;;;;;;;;;4992750;28;19934;-87
2023/03/07 14:57:33;;;;;;;;;;;;;;;;;;4986366;28;19949;-85
2023/03/07 14:59:58;;;;;;;;;;;;;;;;;;4989166;28;19910;-85
2023/03/07 15:02:23;;;;;;;;;;;;;;;;;;4991650;28;19925;-86
2023/03/07 15:04:48;;;;;;;;;;;;;;;;;;4986277;28;19906;-86
2023/03/07 15:07:13;;;;;;;;;;;;;;;;;;4982153;28;19929;-87
2023/03/07 15:09:39;;;;;;;;;;;;;;;;;;4974619;28;20018;-86
2023/03/07 15:12:04;;;;;;;;;;;;;;;;;;4976092;28;20005;-87
2023/03/07 15:14:29;;;;;;;;;;;;;;;;;;4967052;28;19926;-86
2023/03/07 15:16:54;;;;;;;;;;;;;;;;;;4969796;28;19929;-86
2023/03/07 15:19:20;;;;;;;;;;;;;;;;;;4969875;28;19922;-86
2023/03/07 15:21:48;;;;;;;;;;;;;;;;;;4967498;28;19918;-87
2023/03/07 15:24:13;;;;;;;;;;;;;;;;;;4970116;28;20371;-86
2023/03/07 15:26:41;;;;;;;;;;;;;;;;;;4965663;28;19938;-87
2023/03/07 15:29:07;;;;;;;;;;;;;;;;;;4972692;28;19922;-87
2023/03/07 15:31:32;;;;;;;;;;;;;;;;;;4961717;28;19918;-86
2023/03/07 15:33:58;;;;;;;;;;;;;;;;;;4962169;28;19928;-86
2023/03/07 15:36:23;;;;;;;;;;;;;;;;;;4970209;28;20322;-87
2023/03/07 15:38:48;;;;;;;;;;;;;;;;;;4966998;28;20433;-87
2023/03/07 15:41:13;;;;;;;;;;;;;;;;;;4966510;28;19952;-85
2023/03/07 15:43:38;;;;;;;;;;;;;;;;;;4966182;28;19975;-86
2023/03/07 15:46:03;;;;;;;;;;;;;;;;;;4971355;28;19919;-86
2023/03/07 15:48:29;;;;;;;;;;;;;;;;;;4963576;28;19919;-86
2023/03/07 15:50:54;;;;;;;;;;;;;;;;;;4969778;28;19922;-86
2023/03/07 15:53:22;;;;;;;;;;;;;;;;;;4968510;28;20117;-86
2023/03/07 15:55:47;;;;;;;;;;;;;;;;;;4972380;28;19918;-85
2023/03/07 15:58:12;;;;;;;;;;;;;;;;;;4960811;28;19914;-85
2023/03/07 16:00:37;;;;;;;;;;;;;;;;;;4961532;28;19914;-86
2023/03/07 16:03:03;;;;;;;;;;;;;;;;;;4971665;28;20009;-86
2023/03/07 16:05:28;;;;;;;;;;;;;;;;;;4982634;28;19922;-85
2023/03/07 16:07:53;;;;;;;;;;;;;;;;;;4981275;28;19918;-86
2023/03/07 16:10:18;;;;;;;;;;;;;;;;;;4983334;28;19918;-85
2023/03/07 16:12:45;;;;;;;;;;;;;;;;;;4979471;28;19921;-86
2023/03/07 16:15:10;;;;;;;;;;;;;;;;;;4975075;28;19929;-86
2023/03/07 16:17:35;;;;;;;;;;;;;;;;;;4970697;28;20135;-86
2023/03/07 16:20:00;;;;;;;;;;;;;;;;;;4976426;28;19925;-86
2023/03/07 16:22:26;;;;;;;;;;;;;;;;;;4979021;28;19921;-86
2023/03/07 16:24:51;;;;;;;;;;;;;;;;;;4979941;28;19994;-86
2023/03/07 16:27:16;;;;;;;;;;;;;;;;;;4981775;28;20174;-86
2023/03/07 16:29:42;;;;;;;;;;;;;;;;;;4974947;28;19989;-86
2023/03/07 16:32:10;;;;;;;;;;;;;;;;;;4972281;28;19985;-85
2023/03/07 16:34:35;;;;;;;;;;;;;;;;;;4973125;28;19980;-84
2023/03/07 16:37:00;;;;;;;;;;;;;;;;;;4978814;28;19989;-84